createdAt,value
2022-11-08T00:00:01.355Z,0.73
2022-11-08T00:01:01.227Z,0.70
2022-11-08T00:02:01.566Z,1.47
2022-11-08T00:03:01.304Z,0.23
2022-11-08T00:04:03.871Z,0.00
2022-11-08T00:05:01.008Z,0.00
2022-11-08T00:06:00.936Z,0.00
2022-11-08T00:07:01.330Z,0.00
2022-11-08T00:08:02.668Z,0.30
2022-11-08T00:09:01.236Z,0.00
2022-11-08T00:10:01.282Z,0.27
2022-11-08T00:11:02.056Z,0.17
2022-11-08T00:12:01.629Z,0.20
2022-11-08T00:13:01.337Z,0.43
2022-11-08T00:14:00.911Z,0.00
2022-11-08T00:15:01.426Z,0.00
2022-11-08T00:16:01.277Z,0.00
2022-11-08T00:17:01.275Z,0.00
2022-11-08T00:18:00.927Z,0.00
2022-11-08T00:19:00.969Z,0.00
2022-11-08T00:20:01.262Z,0.00
2022-11-08T00:21:02.308Z,0.00
2022-11-08T00:22:00.916Z,0.00
2022-11-08T00:23:01.535Z,0.00
2022-11-08T00:24:01.426Z,0.00
2022-11-08T00:25:01.259Z,0.00
2022-11-08T00:26:01.209Z,0.00
2022-11-08T00:27:03.502Z,0.00
2022-11-08T00:28:00.920Z,0.00
2022-11-08T00:29:00.949Z,0.33
2022-11-08T00:30:00.937Z,0.00
2022-11-08T00:31:04.655Z,0.00
2022-11-08T00:32:01.548Z,0.00
2022-11-08T00:33:00.906Z,0.00
2022-11-08T00:34:01.238Z,0.00
2022-11-08T00:35:01.502Z,0.00
2022-11-08T00:36:01.795Z,0.00
2022-11-08T00:37:01.436Z,0.00
2022-11-08T00:38:01.223Z,0.00
2022-11-08T00:39:01.326Z,0.00
2022-11-08T00:40:00.939Z,0.00
2022-11-08T00:41:00.990Z,0.00
2022-11-08T00:42:01.026Z,0.00
2022-11-08T00:43:00.922Z,0.00
2022-11-08T00:44:00.938Z,0.00
2022-11-08T00:45:01.232Z,0.00
2022-11-08T00:46:01.120Z,0.00
2022-11-08T00:47:01.732Z,0.00
2022-11-08T00:48:01.243Z,0.00
2022-11-08T00:49:01.163Z,0.00
2022-11-08T00:50:00.940Z,0.00
2022-11-08T00:51:02.123Z,0.00
2022-11-08T00:52:01.229Z,0.00
2022-11-08T00:53:00.929Z,0.00
2022-11-08T00:54:01.211Z,0.00
2022-11-08T00:55:00.930Z,0.00
2022-11-08T00:56:02.764Z,0.00
2022-11-08T00:57:01.113Z,0.00
2022-11-08T00:58:01.227Z,0.00
2022-11-08T00:59:01.236Z,0.00
2022-11-08T01:00:01.274Z,0.00
2022-11-08T01:01:08.890Z,0.00
2022-11-08T01:02:01.014Z,0.00
2022-11-08T01:03:00.931Z,0.00
2022-11-08T01:04:01.242Z,0.00
2022-11-08T01:05:00.920Z,0.00
2022-11-08T01:06:04.219Z,0.00
2022-11-08T01:07:00.932Z,0.00
2022-11-08T01:08:01.218Z,0.00
2022-11-08T01:09:01.376Z,0.00
2022-11-08T01:10:00.918Z,0.00
2022-11-08T01:11:03.304Z,0.00
2022-11-08T01:12:00.922Z,0.00
2022-11-08T01:13:01.222Z,0.00
2022-11-08T01:14:01.920Z,0.00
2022-11-08T01:15:01.333Z,0.00
2022-11-08T01:16:05.945Z,0.67
2022-11-08T01:17:00.922Z,0.00
2022-11-08T01:18:00.961Z,0.00
2022-11-08T01:19:02.376Z,0.00
2022-11-08T01:20:00.933Z,0.50
2022-11-08T01:21:02.927Z,0.00
2022-11-08T01:22:01.275Z,0.00
2022-11-08T01:23:01.201Z,0.00
2022-11-08T01:24:01.227Z,0.00
2022-11-08T01:25:00.917Z,0.00
2022-11-08T01:26:03.590Z,0.00
2022-11-08T01:27:01.226Z,0.00
2022-11-08T01:28:00.930Z,0.00
2022-11-08T01:29:01.224Z,0.30
2022-11-08T01:30:01.393Z,0.00
2022-11-08T01:31:04.349Z,0.00
2022-11-08T01:32:00.923Z,0.00
2022-11-08T01:33:00.949Z,0.00
2022-11-08T01:34:01.230Z,0.00
2022-11-08T01:35:01.259Z,0.00
2022-11-08T01:36:01.365Z,0.00
2022-11-08T01:37:01.239Z,0.00
2022-11-08T01:38:02.561Z,0.70
2022-11-08T01:39:00.927Z,0.00
2022-11-08T01:40:00.925Z,0.47
2022-11-08T01:41:01.640Z,0.00
2022-11-08T01:42:01.549Z,0.00
2022-11-08T01:43:20.399Z,0.00
2022-11-08T01:44:00.948Z,0.00
2022-11-08T01:45:02.932Z,0.00
2022-11-08T01:46:20.412Z,0.00
2022-11-08T01:47:00.924Z,0.03
2022-11-08T01:48:00.919Z,0.00
2022-11-08T01:49:14.629Z,0.00
2022-11-08T01:50:05.242Z,0.00
2022-11-08T01:51:01.286Z,0.00
2022-11-08T01:52:07.540Z,0.00
2022-11-08T01:53:00.945Z,0.37
2022-11-08T01:54:04.500Z,0.00
2022-11-08T01:55:14.156Z,0.00
2022-11-08T01:56:01.912Z,0.00
2022-11-08T01:57:04.598Z,0.00
2022-11-08T01:58:04.625Z,0.03
2022-11-08T01:59:05.483Z,0.00
2022-11-08T02:00:05.685Z,0.00
2022-11-08T02:01:02.109Z,0.00
2022-11-08T02:02:01.460Z,0.00
2022-11-08T02:03:03.502Z,0.00
2022-11-08T02:04:02.559Z,0.00
2022-11-08T02:05:03.461Z,0.00
2022-11-08T02:06:02.904Z,0.00
2022-11-08T02:07:02.097Z,0.00
2022-11-08T02:08:04.766Z,0.00
2022-11-08T02:09:05.484Z,0.00
2022-11-08T02:10:02.454Z,0.00
2022-11-08T02:11:03.215Z,0.00
2022-11-08T02:12:01.634Z,0.00
2022-11-08T02:13:05.050Z,0.27
2022-11-08T02:14:02.224Z,0.00
2022-11-08T02:15:01.264Z,0.00
2022-11-08T02:16:01.529Z,0.00
2022-11-08T02:17:00.963Z,0.00
2022-11-08T02:18:02.006Z,0.00
2022-11-08T02:19:01.122Z,0.00
2022-11-08T02:20:01.744Z,0.97
2022-11-08T02:21:09.443Z,0.00
2022-11-08T02:22:06.219Z,0.00
2022-11-08T02:23:11.081Z,0.00
2022-11-08T02:24:06.034Z,0.00
2022-11-08T02:25:02.137Z,0.00
2022-11-08T02:26:01.586Z,0.00
2022-11-08T02:27:01.709Z,0.00
2022-11-08T02:28:01.254Z,0.00
2022-11-08T02:29:20.495Z,0.00
2022-11-08T02:30:00.947Z,0.00
2022-11-08T02:31:00.923Z,0.00
2022-11-08T02:32:03.089Z,0.00
2022-11-08T02:33:15.172Z,0.00
2022-11-08T02:34:01.252Z,0.00
2022-11-08T02:35:01.364Z,0.00
2022-11-08T02:36:02.390Z,0.00
2022-11-08T02:37:02.778Z,0.00
2022-11-08T02:38:00.939Z,0.00
2022-11-08T02:39:01.553Z,0.00
2022-11-08T02:40:01.301Z,0.00
2022-11-08T02:41:01.317Z,0.00
2022-11-08T02:42:01.826Z,0.00
2022-11-08T02:43:00.912Z,0.00
2022-11-08T02:44:00.935Z,0.00
2022-11-08T02:45:01.223Z,0.00
2022-11-08T02:46:01.515Z,0.00
2022-11-08T02:47:01.190Z,0.00
2022-11-08T02:48:01.229Z,0.00
2022-11-08T02:49:00.931Z,0.00
2022-11-08T02:50:00.983Z,0.00
2022-11-08T02:51:01.257Z,0.00
2022-11-08T02:52:01.384Z,0.00
2022-11-08T02:53:01.928Z,0.00
2022-11-08T02:54:00.928Z,0.00
2022-11-08T02:55:01.266Z,0.30
2022-11-08T02:56:00.953Z,0.23
2022-11-08T02:57:01.056Z,0.00
2022-11-08T02:58:02.636Z,0.17
2022-11-08T02:59:00.995Z,0.00
2022-11-08T03:00:00.939Z,0.00
2022-11-08T03:01:01.052Z,0.00
2022-11-08T03:02:01.112Z,0.00
2022-11-08T03:03:01.461Z,0.00
2022-11-08T03:04:01.244Z,0.33
2022-11-08T03:05:01.220Z,0.00
2022-11-08T03:06:00.934Z,0.13
2022-11-08T03:07:00.919Z,0.00
2022-11-08T03:08:01.383Z,0.00
2022-11-08T03:09:01.584Z,0.27
2022-11-08T03:10:01.212Z,0.87
2022-11-08T03:11:01.234Z,0.00
2022-11-08T03:12:01.231Z,0.00
2022-11-08T03:13:04.113Z,0.00
2022-11-08T03:14:01.238Z,0.03
2022-11-08T03:15:01.260Z,0.00
2022-11-08T03:16:01.721Z,0.00
2022-11-08T03:17:01.219Z,0.00
2022-11-08T03:18:00.920Z,0.00
2022-11-08T03:19:01.216Z,0.37
2022-11-08T03:20:02.401Z,0.03
2022-11-08T03:21:01.474Z,0.63
2022-11-08T03:22:01.211Z,0.00
2022-11-08T03:23:03.531Z,0.00
2022-11-08T03:24:01.267Z,0.00
2022-11-08T03:25:00.932Z,0.00
2022-11-08T03:26:01.756Z,0.00
2022-11-08T03:27:01.223Z,0.10
2022-11-08T03:28:01.161Z,0.00
2022-11-08T03:29:00.927Z,0.80
2022-11-08T03:30:00.965Z,0.30
2022-11-08T03:31:01.633Z,0.00
2022-11-08T03:32:01.402Z,0.00
2022-11-08T03:33:01.498Z,0.00
2022-11-08T03:34:01.217Z,0.00
2022-11-08T03:35:01.222Z,0.00
2022-11-08T03:36:01.236Z,0.00
2022-11-08T03:37:00.971Z,0.00
2022-11-08T03:38:01.341Z,0.00
2022-11-08T03:39:01.348Z,0.40
2022-11-08T03:40:00.953Z,0.10
2022-11-08T03:41:01.226Z,0.00
2022-11-08T03:42:02.160Z,0.27
2022-11-08T03:43:01.249Z,0.00
2022-11-08T03:44:00.937Z,0.43
2022-11-08T03:45:01.222Z,0.00
2022-11-08T03:46:00.927Z,0.00
2022-11-08T03:47:01.365Z,0.00
2022-11-08T03:48:01.296Z,0.07
2022-11-08T03:49:01.244Z,0.80
2022-11-08T03:50:00.959Z,0.97
2022-11-08T03:51:00.937Z,0.40
2022-11-08T03:52:01.341Z,0.57
2022-11-08T03:53:01.094Z,0.00
2022-11-08T03:54:00.932Z,0.00
2022-11-08T03:55:01.196Z,0.00
2022-11-08T03:56:01.410Z,0.00
2022-11-08T03:57:00.934Z,0.00
2022-11-08T03:58:01.218Z,0.00
2022-11-08T03:59:00.939Z,0.00
2022-11-08T04:00:00.947Z,0.00
2022-11-08T04:01:03.292Z,0.67
2022-11-08T04:02:01.035Z,0.00
2022-11-08T04:03:03.029Z,0.00
2022-11-08T04:04:01.432Z,0.00
2022-11-08T04:05:00.988Z,0.00
2022-11-08T04:06:01.648Z,0.23
2022-11-08T04:07:00.951Z,0.67
2022-11-08T04:08:01.395Z,0.47
2022-11-08T04:09:01.325Z,0.00
2022-11-08T04:10:01.457Z,0.10
2022-11-08T04:11:01.240Z,0.00
2022-11-08T04:12:01.227Z,0.00
2022-11-08T04:13:01.637Z,0.00
2022-11-08T04:14:00.921Z,0.00
2022-11-08T04:15:01.374Z,0.13
2022-11-08T04:16:01.009Z,0.70
2022-11-08T04:17:00.928Z,0.00
2022-11-08T04:18:00.936Z,0.77
2022-11-08T04:19:01.349Z,0.67
2022-11-08T04:20:00.917Z,0.00
2022-11-08T04:21:01.239Z,0.13
2022-11-08T04:22:00.951Z,0.00
2022-11-08T04:23:00.928Z,0.00
2022-11-08T04:24:01.221Z,0.03
2022-11-08T04:25:01.253Z,0.00
2022-11-08T04:26:03.975Z,0.00
2022-11-08T04:27:01.485Z,0.00
2022-11-08T04:28:01.250Z,0.00
2022-11-08T04:29:01.491Z,0.77
2022-11-08T04:30:00.921Z,0.00
2022-11-08T04:31:03.712Z,0.00
2022-11-08T04:32:00.920Z,0.57
2022-11-08T04:33:02.156Z,0.00
2022-11-08T04:34:01.320Z,0.00
2022-11-08T04:35:01.406Z,0.00
2022-11-08T04:36:01.735Z,0.60
2022-11-08T04:37:01.302Z,1.00
2022-11-08T04:38:01.732Z,0.07
2022-11-08T04:39:01.610Z,0.03
2022-11-08T04:40:01.251Z,0.07
2022-11-08T04:41:02.473Z,0.00
2022-11-08T04:42:02.614Z,0.00
2022-11-08T04:43:00.918Z,0.87
2022-11-08T04:44:01.853Z,0.00
2022-11-08T04:45:01.236Z,0.00
2022-11-08T04:46:03.088Z,0.00
2022-11-08T04:47:00.922Z,0.47
2022-11-08T04:48:01.294Z,0.13
2022-11-08T04:49:01.238Z,0.93
2022-11-08T04:50:01.246Z,0.00
2022-11-08T04:51:01.219Z,0.00
2022-11-08T04:52:00.932Z,0.23
2022-11-08T04:53:00.959Z,0.00
2022-11-08T04:54:02.469Z,1.53
2022-11-08T04:55:00.916Z,0.00
2022-11-08T04:56:03.543Z,0.20
2022-11-08T04:57:00.917Z,0.00
2022-11-08T04:58:00.924Z,0.87
2022-11-08T04:59:01.430Z,0.43
2022-11-08T05:00:01.242Z,0.10
2022-11-08T05:01:01.754Z,0.23
2022-11-08T05:02:01.632Z,0.30
2022-11-08T05:03:01.711Z,0.00
2022-11-08T05:04:00.941Z,0.00
2022-11-08T05:05:01.244Z,0.67
2022-11-08T05:06:01.793Z,0.80
2022-11-08T05:07:00.982Z,0.57
2022-11-08T05:08:00.915Z,0.90
2022-11-08T05:09:01.425Z,0.77
2022-11-08T05:10:02.611Z,0.37
2022-11-08T05:11:02.049Z,0.17
2022-11-08T05:12:01.245Z,0.67
2022-11-08T05:13:00.909Z,0.60
2022-11-08T05:14:00.942Z,0.00
2022-11-08T05:15:01.218Z,0.00
2022-11-08T05:16:04.137Z,0.97
2022-11-08T05:17:00.919Z,0.50
2022-11-08T05:18:01.280Z,0.00
2022-11-08T05:19:01.356Z,1.00
2022-11-08T05:20:01.312Z,0.43
2022-11-08T05:21:01.827Z,0.57
2022-11-08T05:22:00.922Z,0.00
2022-11-08T05:23:01.847Z,0.00
2022-11-08T05:24:02.398Z,0.23
2022-11-08T05:25:00.918Z,0.87
2022-11-08T05:26:01.241Z,0.27
2022-11-08T05:27:00.930Z,0.00
2022-11-08T05:28:01.216Z,0.90
2022-11-08T05:29:01.384Z,0.00
2022-11-08T05:30:00.938Z,0.70
2022-11-08T05:31:01.783Z,0.73
2022-11-08T05:32:01.587Z,0.83
2022-11-08T05:33:01.229Z,0.33
2022-11-08T05:34:01.222Z,0.93
2022-11-08T05:35:01.243Z,0.67
2022-11-08T05:36:05.617Z,1.00
2022-11-08T05:37:00.938Z,0.83
2022-11-08T05:38:01.377Z,0.00
2022-11-08T05:39:01.302Z,0.37
2022-11-08T05:40:01.248Z,0.57
2022-11-08T05:41:02.527Z,0.00
2022-11-08T05:42:00.937Z,0.67
2022-11-08T05:43:01.242Z,0.80
2022-11-08T05:44:00.943Z,0.57
2022-11-08T05:45:04.022Z,0.40
2022-11-08T05:46:00.950Z,0.53
2022-11-08T05:47:00.919Z,0.83
2022-11-08T05:48:01.244Z,0.73
2022-11-08T05:49:00.941Z,0.00
2022-11-08T05:50:01.221Z,1.00
2022-11-08T05:51:01.375Z,0.43
2022-11-08T05:52:00.939Z,0.23
2022-11-08T05:53:01.587Z,0.20
2022-11-08T05:54:01.312Z,0.80
2022-11-08T05:55:00.943Z,0.77
2022-11-08T05:56:02.794Z,0.73
2022-11-08T05:57:00.935Z,0.77
2022-11-08T05:58:00.933Z,0.00
2022-11-08T05:59:01.246Z,0.17
2022-11-08T06:00:01.150Z,0.00
2022-11-08T06:01:03.302Z,0.00
2022-11-08T06:02:01.261Z,0.00
2022-11-08T06:03:02.236Z,0.47
2022-11-08T06:04:01.496Z,0.00
2022-11-08T06:05:01.098Z,0.17
2022-11-08T06:06:01.913Z,0.53
2022-11-08T06:07:01.237Z,0.27
2022-11-08T06:08:01.327Z,0.77
2022-11-08T06:09:01.223Z,0.30
2022-11-08T06:10:01.663Z,0.83
2022-11-08T06:11:02.607Z,0.50
2022-11-08T06:12:00.927Z,0.27
2022-11-08T06:13:00.937Z,0.10
2022-11-08T06:14:00.939Z,0.23
2022-11-08T06:15:00.944Z,0.77
2022-11-08T06:16:02.915Z,0.00
2022-11-08T06:17:01.396Z,0.70
2022-11-08T06:18:02.557Z,0.47
2022-11-08T06:19:00.939Z,0.00
2022-11-08T06:20:01.296Z,0.50
2022-11-08T06:21:03.053Z,0.83
2022-11-08T06:22:01.224Z,0.10
2022-11-08T06:23:00.978Z,0.50
2022-11-08T06:24:00.940Z,0.73
2022-11-08T06:25:01.497Z,0.57
2022-11-08T06:26:02.045Z,0.77
2022-11-08T06:27:01.179Z,0.87
2022-11-08T06:28:01.229Z,0.10
2022-11-08T06:29:01.565Z,0.97
2022-11-08T06:30:01.266Z,0.17
2022-11-08T06:31:02.664Z,0.47
2022-11-08T06:32:00.929Z,0.90
2022-11-08T06:33:00.926Z,0.33
2022-11-08T06:34:01.286Z,0.73
2022-11-08T06:35:01.237Z,0.00
2022-11-08T06:36:01.557Z,0.00
2022-11-08T06:37:00.942Z,0.00
2022-11-08T06:38:05.663Z,0.00
2022-11-08T06:39:01.230Z,0.93
2022-11-08T06:40:01.458Z,0.73
2022-11-08T06:41:01.760Z,0.47
2022-11-08T06:42:01.215Z,0.77
2022-11-08T06:43:00.939Z,1.53
2022-11-08T06:44:01.295Z,0.50
2022-11-08T06:45:01.230Z,0.37
2022-11-08T06:46:01.651Z,1.00
2022-11-08T06:47:01.436Z,0.37
2022-11-08T06:48:02.886Z,0.37
2022-11-08T06:49:01.313Z,0.10
2022-11-08T06:50:01.216Z,0.00
2022-11-08T06:51:01.602Z,0.97
2022-11-08T06:52:00.924Z,0.27
2022-11-08T06:53:03.386Z,0.53
2022-11-08T06:54:00.921Z,1.00
2022-11-08T06:55:00.945Z,0.60
2022-11-08T06:56:01.647Z,0.43
2022-11-08T06:57:01.249Z,0.20
2022-11-08T06:58:01.778Z,0.00
2022-11-08T06:59:00.935Z,0.83
2022-11-08T07:00:01.510Z,0.90
2022-11-08T07:01:03.421Z,0.67
2022-11-08T07:02:01.351Z,0.43
2022-11-08T07:03:02.773Z,1.10
2022-11-08T07:04:01.707Z,1.43
2022-11-08T07:05:01.222Z,0.13
2022-11-08T07:06:02.157Z,0.57
2022-11-08T07:07:01.272Z,0.10
2022-11-08T07:08:01.973Z,0.53
2022-11-08T07:09:00.941Z,0.27
2022-11-08T07:10:03.884Z,1.20
2022-11-08T07:11:01.853Z,0.80
2022-11-08T07:12:00.997Z,0.93
2022-11-08T07:13:02.548Z,0.77
2022-11-08T07:14:01.230Z,0.77
2022-11-08T07:15:01.543Z,1.00
2022-11-08T07:16:02.194Z,0.63
2022-11-08T07:17:00.907Z,0.23
2022-11-08T07:18:01.932Z,0.93
2022-11-08T07:19:00.937Z,0.13
2022-11-08T07:20:01.241Z,0.67
2022-11-08T07:21:01.973Z,0.30
2022-11-08T07:22:01.383Z,0.37
2022-11-08T07:23:01.260Z,0.60
2022-11-08T07:24:01.248Z,0.57
2022-11-08T07:25:01.228Z,0.00
2022-11-08T07:26:02.455Z,0.67
2022-11-08T07:27:00.926Z,1.20
2022-11-08T07:28:03.302Z,0.03
2022-11-08T07:29:01.250Z,0.87
2022-11-08T07:30:01.239Z,0.77
2022-11-08T07:31:03.711Z,0.80
2022-11-08T07:32:00.932Z,0.70
2022-11-08T07:33:01.243Z,0.57
2022-11-08T07:34:01.236Z,0.23
2022-11-08T07:35:01.222Z,0.43
2022-11-08T07:36:01.588Z,0.40
2022-11-08T07:37:01.253Z,0.53
2022-11-08T07:38:00.991Z,0.90
2022-11-08T07:39:06.261Z,0.00
2022-11-08T07:40:01.234Z,0.83
2022-11-08T07:41:01.735Z,0.83
2022-11-08T07:42:01.219Z,0.67
2022-11-08T07:43:12.990Z,0.87
2022-11-08T07:44:01.136Z,0.87
2022-11-08T07:45:00.950Z,0.23
2022-11-08T07:46:01.635Z,0.40
2022-11-08T07:47:00.942Z,0.83
2022-11-08T07:48:09.482Z,0.43
2022-11-08T07:49:00.950Z,0.67
2022-11-08T07:50:01.290Z,0.87
2022-11-08T07:51:00.974Z,0.73
2022-11-08T07:52:00.953Z,1.00
2022-11-08T07:53:01.276Z,1.13
2022-11-08T07:54:03.255Z,0.73
2022-11-08T07:55:01.410Z,0.83
2022-11-08T07:56:01.222Z,0.00
2022-11-08T07:57:00.933Z,1.00
2022-11-08T07:58:01.229Z,0.87
2022-11-08T07:59:00.943Z,0.03
2022-11-08T08:00:06.334Z,0.93
2022-11-08T08:01:02.426Z,0.40
2022-11-08T08:02:02.016Z,0.47
2022-11-08T08:03:02.548Z,0.93
2022-11-08T08:04:01.228Z,0.10
2022-11-08T08:05:01.304Z,0.27
2022-11-08T08:06:01.845Z,1.00
2022-11-08T08:07:00.947Z,0.40
2022-11-08T08:08:01.626Z,1.00
2022-11-08T08:09:01.220Z,1.00
2022-11-08T08:10:01.414Z,0.97
2022-11-08T08:11:02.099Z,1.50
2022-11-08T08:12:01.014Z,0.73
2022-11-08T08:13:01.679Z,1.00
2022-11-08T08:14:01.219Z,0.77
2022-11-08T08:15:01.230Z,0.37
2022-11-08T08:16:01.607Z,0.87
2022-11-08T08:17:01.340Z,0.90
2022-11-08T08:18:02.466Z,1.57
2022-11-08T08:19:00.923Z,1.00
2022-11-08T08:20:01.201Z,0.90
2022-11-08T08:21:01.252Z,0.67
2022-11-08T08:22:00.938Z,0.07
2022-11-08T08:23:01.318Z,1.00
2022-11-08T08:24:00.944Z,0.87
2022-11-08T08:25:03.197Z,0.00
2022-11-08T08:26:01.610Z,0.60
2022-11-08T08:27:01.236Z,0.00
2022-11-08T08:28:01.551Z,0.37
2022-11-08T08:29:01.239Z,1.30
2022-11-08T08:30:00.937Z,1.00
2022-11-08T08:31:01.402Z,0.97
2022-11-08T08:32:01.239Z,0.10
2022-11-08T08:33:26.916Z,0.87
2022-11-08T08:34:00.917Z,0.50
2022-11-08T08:35:01.230Z,0.40
2022-11-08T08:36:01.474Z,0.33
2022-11-08T08:37:01.207Z,1.00
2022-11-08T08:38:02.191Z,0.93
2022-11-08T08:39:01.514Z,0.53
2022-11-08T08:40:01.314Z,0.67
2022-11-08T08:41:02.091Z,0.90
2022-11-08T08:42:01.232Z,0.60
2022-11-08T08:43:02.361Z,0.00
2022-11-08T08:44:01.286Z,1.10
2022-11-08T08:45:01.489Z,0.80
2022-11-08T08:46:02.744Z,0.87
2022-11-08T08:47:01.225Z,0.87
2022-11-08T08:48:01.901Z,0.70
2022-11-08T08:49:01.234Z,0.17
2022-11-08T08:50:01.133Z,1.57
2022-11-08T08:51:01.263Z,1.50
2022-11-08T08:52:00.940Z,0.57
2022-11-08T08:53:03.539Z,0.70
2022-11-08T08:54:01.216Z,0.00
2022-11-08T08:55:01.455Z,1.00
2022-11-08T08:56:04.064Z,0.87
2022-11-08T08:57:01.231Z,1.00
2022-11-08T08:58:01.480Z,1.07
2022-11-08T09:02:00.937Z,1.00
2022-11-08T09:03:01.880Z,1.00
2022-11-08T09:04:00.973Z,0.77
2022-11-08T09:05:01.256Z,0.87
2022-11-08T09:06:02.219Z,1.37
2022-11-08T09:07:01.054Z,0.90
2022-11-08T09:08:01.421Z,0.90
2022-11-08T09:09:01.222Z,1.03
2022-11-08T09:10:01.275Z,0.07
2022-11-08T09:11:01.449Z,1.00
2022-11-08T09:12:01.238Z,0.60
2022-11-08T09:13:01.451Z,0.70
2022-11-08T09:14:01.258Z,0.63
2022-11-08T09:15:01.758Z,0.57
2022-11-08T09:16:01.270Z,1.13
2022-11-08T09:17:01.234Z,0.57
2022-11-08T09:18:01.292Z,0.33
2022-11-08T09:19:01.220Z,0.70
2022-11-08T09:20:01.211Z,0.90
2022-11-08T09:21:01.286Z,0.00
2022-11-08T09:22:01.309Z,0.13
2022-11-08T09:23:01.909Z,0.80
2022-11-08T09:24:00.924Z,0.50
2022-11-08T09:25:00.943Z,0.50
2022-11-08T09:26:03.047Z,1.00
2022-11-08T09:27:00.922Z,1.07
2022-11-08T09:28:01.231Z,1.00
2022-11-08T09:29:00.932Z,1.00
2022-11-08T09:30:01.266Z,1.03
2022-11-08T09:31:04.129Z,1.10
2022-11-08T09:32:01.677Z,0.47
2022-11-08T09:33:02.386Z,1.00
2022-11-08T09:34:01.227Z,0.67
2022-11-08T09:35:01.237Z,0.77
2022-11-08T09:36:02.872Z,1.00
2022-11-08T09:37:00.937Z,1.10
2022-11-08T09:38:01.228Z,0.17
2022-11-08T09:39:01.232Z,0.30
2022-11-08T09:40:01.461Z,0.77
2022-11-08T09:41:12.397Z,0.67
2022-11-08T09:42:10.800Z,0.80
2022-11-08T09:43:16.544Z,0.97
2022-11-08T09:44:09.815Z,0.87
2022-11-08T09:45:15.192Z,0.73
2022-11-08T09:46:01.269Z,1.13
2022-11-08T09:47:06.684Z,0.87
2022-11-08T09:48:05.477Z,0.60
2022-11-08T09:49:02.363Z,0.70
2022-11-08T09:50:09.727Z,0.63
2022-11-08T09:51:06.806Z,0.77
2022-11-08T09:52:03.785Z,0.70
2022-11-08T09:53:12.333Z,0.40
2022-11-08T09:54:02.937Z,0.57
2022-11-08T09:55:15.179Z,0.53
2022-11-08T09:56:08.560Z,0.63
2022-11-08T09:57:02.080Z,0.00
2022-11-08T09:58:10.725Z,0.57
2022-11-08T09:59:08.298Z,1.20
2022-11-08T10:00:05.337Z,0.60
2022-11-08T10:01:01.741Z,0.00
2022-11-08T10:02:02.135Z,0.97
2022-11-08T10:03:02.203Z,0.07
2022-11-08T10:04:05.934Z,0.07
2022-11-08T10:05:06.172Z,0.87
2022-11-08T10:06:17.701Z,0.77
2022-11-08T10:07:15.059Z,0.80
2022-11-08T10:08:07.129Z,0.73
2022-11-08T10:09:12.311Z,0.00
2022-11-08T10:10:17.521Z,0.90
2022-11-08T10:11:14.182Z,0.40
2022-11-08T10:12:11.227Z,0.67
2022-11-08T10:13:09.892Z,0.13
2022-11-08T10:14:13.855Z,0.07
2022-11-08T10:15:15.221Z,0.17
2022-11-08T10:16:11.411Z,0.27
2022-11-08T10:17:20.407Z,0.57
2022-11-08T10:18:20.400Z,0.00
2022-11-08T10:19:20.398Z,0.67
2022-11-08T10:20:12.435Z,0.00
2022-11-08T10:21:10.197Z,0.73
2022-11-08T10:22:05.076Z,0.00
2022-11-08T10:23:16.365Z,0.00
2022-11-08T10:24:08.622Z,0.47
2022-11-08T10:25:05.121Z,0.30
2022-11-08T10:26:07.480Z,0.23
2022-11-08T10:27:02.856Z,0.63
2022-11-08T10:28:02.676Z,0.00
2022-11-08T10:29:07.800Z,0.50
2022-11-08T10:30:05.420Z,0.80
2022-11-08T10:31:01.724Z,0.00
2022-11-08T10:32:10.928Z,0.27
2022-11-08T10:33:01.385Z,0.00
2022-11-08T10:34:08.499Z,0.47
2022-11-08T10:35:08.642Z,1.00
2022-11-08T10:36:09.341Z,0.77
2022-11-08T10:37:04.328Z,0.80
2022-11-08T10:38:08.629Z,0.63
2022-11-08T10:39:04.006Z,0.00
2022-11-08T10:40:11.521Z,0.87
2022-11-08T10:41:11.262Z,0.53
2022-11-08T10:42:07.310Z,0.57
2022-11-08T10:43:09.677Z,0.90
2022-11-08T10:44:05.659Z,0.00
2022-11-08T10:45:01.301Z,0.87
2022-11-08T10:46:01.339Z,1.00
2022-11-08T10:47:03.401Z,1.00
2022-11-08T10:48:01.320Z,0.97
2022-11-08T10:49:11.044Z,0.77
2022-11-08T10:50:11.253Z,0.57
2022-11-08T10:51:01.372Z,0.23
2022-11-08T10:52:11.900Z,0.00
2022-11-08T10:53:03.285Z,1.00
2022-11-08T10:54:01.038Z,0.53
2022-11-08T10:55:04.761Z,0.43
2022-11-08T10:56:03.387Z,0.47
2022-11-08T10:57:01.223Z,1.00
2022-11-08T10:58:00.932Z,0.80
2022-11-08T10:59:01.000Z,0.30
2022-11-08T11:00:15.877Z,0.37
2022-11-08T11:01:05.411Z,0.00
2022-11-08T11:02:01.456Z,0.80
2022-11-08T11:03:20.403Z,1.47
2022-11-08T11:04:18.601Z,1.10
2022-11-08T11:05:19.136Z,1.13
2022-11-08T11:06:02.994Z,1.00
2022-11-08T11:07:02.886Z,0.90
2022-11-08T11:08:12.813Z,1.63
2022-11-08T11:09:03.574Z,2.87
2022-11-08T11:10:20.405Z,2.53
2022-11-08T11:11:20.397Z,2.07
2022-11-08T11:12:07.418Z,2.93
2022-11-08T11:13:08.751Z,3.00
2022-11-08T11:14:06.894Z,3.17
2022-11-08T11:15:03.464Z,2.37
2022-11-08T11:16:02.225Z,1.30
2022-11-08T11:17:05.077Z,1.53
2022-11-08T11:18:02.008Z,2.73
2022-11-08T11:19:03.453Z,3.57
2022-11-08T11:20:01.286Z,3.53
2022-11-08T11:21:08.191Z,2.00
2022-11-08T11:22:04.782Z,2.00
2022-11-08T11:23:01.028Z,2.80
2022-11-08T11:24:08.458Z,2.07
2022-11-08T11:25:13.040Z,2.00
2022-11-08T11:26:01.569Z,1.77
2022-11-08T11:27:04.673Z,0.87
2022-11-08T11:28:01.005Z,1.63
2022-11-08T11:29:06.790Z,1.00
2022-11-08T11:30:20.408Z,0.43
2022-11-08T11:31:03.917Z,1.00
2022-11-08T11:32:20.407Z,0.07
2022-11-08T11:33:03.734Z,1.00
2022-11-08T11:34:20.408Z,0.90
2022-11-08T11:35:03.432Z,0.47
2022-11-08T11:36:10.704Z,1.20
2022-11-08T11:37:11.736Z,0.00
2022-11-08T11:38:07.087Z,0.53
2022-11-08T11:39:05.965Z,0.63
2022-11-08T11:40:09.853Z,0.33
2022-11-08T11:41:10.800Z,0.47
2022-11-08T11:42:31.242Z,0.57
2022-11-08T11:43:08.059Z,0.00
2022-11-08T11:44:12.876Z,0.63
2022-11-08T11:45:12.099Z,0.00
2022-11-08T11:46:12.881Z,0.23
2022-11-08T11:47:05.550Z,0.17
2022-11-08T11:48:08.195Z,0.00
2022-11-08T11:49:12.053Z,0.90
2022-11-08T11:50:13.823Z,0.00
2022-11-08T11:51:01.764Z,0.10
2022-11-08T11:52:01.315Z,0.00
2022-11-08T11:53:04.325Z,0.83
2022-11-08T11:54:04.371Z,0.00
2022-11-08T11:55:02.169Z,0.27
2022-11-08T11:56:18.737Z,0.13
2022-11-08T11:57:07.575Z,0.00
2022-11-08T11:58:13.421Z,0.00
2022-11-08T11:59:19.481Z,0.10
2022-11-08T12:00:07.029Z,0.00
2022-11-08T12:01:11.745Z,0.60
2022-11-08T12:02:20.482Z,0.30
2022-11-08T12:03:18.169Z,0.00
2022-11-08T12:04:20.404Z,0.00
2022-11-08T12:05:19.780Z,0.40
2022-11-08T12:06:15.611Z,0.03
2022-11-08T12:07:10.333Z,1.33
2022-11-08T12:08:13.388Z,0.57
2022-11-08T12:09:11.140Z,0.63
2022-11-08T12:10:16.481Z,0.00
2022-11-08T12:11:20.413Z,0.30
2022-11-08T12:12:14.402Z,0.93
2022-11-08T12:13:12.365Z,0.80
2022-11-08T12:14:15.134Z,0.90
2022-11-08T12:15:11.137Z,1.00
2022-11-08T12:16:11.662Z,1.00
2022-11-08T12:17:17.881Z,0.00
2022-11-08T12:18:36.681Z,0.67
2022-11-08T12:19:20.399Z,0.23
2022-11-08T12:20:22.780Z,0.93
2022-11-08T12:21:10.174Z,0.00
2022-11-08T12:22:15.625Z,0.37
2022-11-08T12:23:15.895Z,0.13
2022-11-08T12:24:09.733Z,0.00
2022-11-08T12:25:09.990Z,0.87
2022-11-08T12:26:08.461Z,0.10
2022-11-08T12:27:10.196Z,1.00
2022-11-08T12:28:12.501Z,0.50
2022-11-08T12:29:16.677Z,0.13
2022-11-08T12:30:08.014Z,0.43
2022-11-08T12:31:14.641Z,0.90
2022-11-08T12:32:18.086Z,0.17
2022-11-08T12:33:19.299Z,0.03
2022-11-08T12:34:16.764Z,0.00
2022-11-08T12:35:15.905Z,0.00
2022-11-08T12:36:15.322Z,0.77
2022-11-08T12:37:14.841Z,0.00
2022-11-08T12:38:14.070Z,0.03
2022-11-08T12:39:08.943Z,0.00
2022-11-08T12:40:13.194Z,0.00
2022-11-08T12:41:11.947Z,0.00
2022-11-08T12:42:18.089Z,0.00
2022-11-08T12:43:12.583Z,0.00
2022-11-08T12:44:20.432Z,0.00
2022-11-08T12:45:20.409Z,0.10
2022-11-08T12:46:08.956Z,0.00
2022-11-08T12:47:12.645Z,0.10
2022-11-08T12:48:11.464Z,0.00
2022-11-08T12:49:18.149Z,0.73
2022-11-08T12:50:14.943Z,0.00
2022-11-08T12:51:11.358Z,0.00
2022-11-08T12:52:11.263Z,0.27
2022-11-08T12:53:20.403Z,0.00
2022-11-08T12:54:19.295Z,0.10
2022-11-08T12:55:08.191Z,0.17
2022-11-08T12:56:04.287Z,0.00
2022-11-08T12:57:05.100Z,0.00
2022-11-08T12:58:07.147Z,0.00
2022-11-08T12:59:03.530Z,0.00
2022-11-08T13:00:06.202Z,0.00
2022-11-08T13:01:06.860Z,0.27
2022-11-08T13:02:02.955Z,0.00
2022-11-08T13:03:16.344Z,0.00
2022-11-08T13:04:18.669Z,0.00
2022-11-08T13:05:07.566Z,0.00
2022-11-08T13:06:07.941Z,0.00
2022-11-08T13:07:07.809Z,0.00
2022-11-08T13:08:12.313Z,0.00
2022-11-08T13:09:11.149Z,0.00
2022-11-08T13:10:12.286Z,0.00
2022-11-08T13:11:05.211Z,0.00
2022-11-08T13:12:10.009Z,0.00
2022-11-08T13:13:09.058Z,0.00
2022-11-08T13:14:01.660Z,0.00
2022-11-08T13:15:02.712Z,0.00
2022-11-08T13:16:12.357Z,0.00
2022-11-08T13:17:13.550Z,0.00
2022-11-08T13:18:20.745Z,0.00
2022-11-08T13:19:01.667Z,0.00
2022-11-08T13:20:05.937Z,0.00
2022-11-08T13:21:20.408Z,0.67